sensor_id;sensor_type;location;lat;lon;timestamp;P1;durP1;ratioP1;P2;durP2;ratioP2
13353;SDS011;6746;50.892;4.064;2022-12-17T00:00:23;44.73;;;28.77;;
13353;SDS011;6746;50.892;4.064;2022-12-17T00:03:30;41.63;;;27.43;;
13353;SDS011;6746;50.892;4.064;2022-12-17T00:06:35;42.37;;;28.83;;
13353;SDS011;6746;50.892;4.064;2022-12-17T00:09:42;42.97;;;28.00;;
13353;SDS011;6746;50.892;4.064;2022-12-17T00:12:48;45.43;;;28.13;;
13353;SDS011;6746;50.892;4.064;2022-12-17T00:15:54;51.33;;;32.97;;
13353;SDS011;6746;50.892;4.064;2022-12-17T00:18:53;53.27;;;31.13;;
13353;SDS011;6746;50.892;4.064;2022-12-17T00:21:49;44.03;;;29.53;;
13353;SDS011;6746;50.892;4.064;2022-12-17T00:24:54;49.80;;;29.30;;
13353;SDS011;6746;50.892;4.064;2022-12-17T00:27:50;54.13;;;31.27;;
13353;SDS011;6746;50.892;4.064;2022-12-17T00:30:50;58.33;;;34.03;;
13353;SDS011;6746;50.892;4.064;2022-12-17T00:33:45;57.67;;;35.63;;
13353;SDS011;6746;50.892;4.064;2022-12-17T00:36:51;57.70;;;32.90;;
13353;SDS011;6746;50.892;4.064;2022-12-17T00:39:57;47.90;;;30.70;;
13353;SDS011;6746;50.892;4.064;2022-12-17T00:46:15;47.30;;;30.23;;
13353;SDS011;6746;50.892;4.064;2022-12-17T00:49:21;58.37;;;31.23;;
13353;SDS011;6746;50.892;4.064;2022-12-17T00:52:26;61.37;;;35.30;;
13353;SDS011;6746;50.892;4.064;2022-12-17T00:55:32;44.00;;;27.90;;
13353;SDS011;6746;50.892;4.064;2022-12-17T00:58:39;44.67;;;28.57;;
13353;SDS011;6746;50.892;4.064;2022-12-17T01:01:45;50.30;;;29.90;;
13353;SDS011;6746;50.892;4.064;2022-12-17T01:04:51;50.67;;;30.67;;
13353;SDS011;6746;50.892;4.064;2022-12-17T01:08:04;51.23;;;32.93;;
13353;SDS011;6746;50.892;4.064;2022-12-17T01:11:04;51.20;;;32.53;;
13353;SDS011;6746;50.892;4.064;2022-12-17T01:14:10;43.93;;;28.80;;
13353;SDS011;6746;50.892;4.064;2022-12-17T01:17:06;55.80;;;31.90;;
13353;SDS011;6746;50.892;4.064;2022-12-17T01:20:12;52.47;;;31.30;;
13353;SDS011;6746;50.892;4.064;2022-12-17T01:23:13;47.50;;;29.83;;
13353;SDS011;6746;50.892;4.064;2022-12-17T01:26:10;46.37;;;28.83;;
13353;SDS011;6746;50.892;4.064;2022-12-17T01:29:06;55.23;;;32.73;;
13353;SDS011;6746;50.892;4.064;2022-12-17T01:32:02;52.93;;;34.17;;
13353;SDS011;6746;50.892;4.064;2022-12-17T01:35:06;50.53;;;30.73;;
13353;SDS011;6746;50.892;4.064;2022-12-17T01:38:02;57.90;;;30.70;;
13353;SDS011;6746;50.892;4.064;2022-12-17T01:40:58;41.23;;;28.03;;
13353;SDS011;6746;50.892;4.064;2022-12-17T01:43:54;47.40;;;30.23;;
13353;SDS011;6746;50.892;4.064;2022-12-17T01:47:01;46.60;;;31.00;;
13353;SDS011;6746;50.892;4.064;2022-12-17T01:49:57;53.87;;;32.27;;
13353;SDS011;6746;50.892;4.064;2022-12-17T01:52:54;51.70;;;32.03;;
13353;SDS011;6746;50.892;4.064;2022-12-17T01:56:00;47.77;;;31.33;;
13353;SDS011;6746;50.892;4.064;2022-12-17T01:59:06;54.83;;;32.97;;
13353;SDS011;6746;50.892;4.064;2022-12-17T02:02:08;47.60;;;31.50;;
13353;SDS011;6746;50.892;4.064;2022-12-17T02:05:05;46.47;;;32.50;;
13353;SDS011;6746;50.892;4.064;2022-12-17T02:08:40;49.17;;;31.70;;
13353;SDS011;6746;50.892;4.064;2022-12-17T02:14:30;41.83;;;28.07;;
13353;SDS011;6746;50.892;4.064;2022-12-17T02:17:38;41.30;;;28.37;;
13353;SDS011;6746;50.892;4.064;2022-12-17T02:20:37;41.90;;;26.43;;
13353;SDS011;6746;50.892;4.064;2022-12-17T02:27:00;38.60;;;27.30;;
13353;SDS011;6746;50.892;4.064;2022-12-17T02:29:57;41.93;;;28.13;;
13353;SDS011;6746;50.892;4.064;2022-12-17T02:33:02;45.23;;;28.20;;
13353;SDS011;6746;50.892;4.064;2022-12-17T02:36:04;41.17;;;27.60;;
13353;SDS011;6746;50.892;4.064;2022-12-17T02:39:00;46.70;;;28.37;;
13353;SDS011;6746;50.892;4.064;2022-12-17T02:41:59;43.77;;;28.70;;
13353;SDS011;6746;50.892;4.064;2022-12-17T02:44:55;46.80;;;30.20;;
13353;SDS011;6746;50.892;4.064;2022-12-17T02:48:02;45.13;;;29.43;;
13353;SDS011;6746;50.892;4.064;2022-12-17T02:50:58;51.53;;;32.20;;
13353;SDS011;6746;50.892;4.064;2022-12-17T02:53:54;41.03;;;28.90;;
13353;SDS011;6746;50.892;4.064;2022-12-17T02:56:58;48.17;;;30.13;;
13353;SDS011;6746;50.892;4.064;2022-12-17T02:59:54;46.17;;;30.00;;
13353;SDS011;6746;50.892;4.064;2022-12-17T03:02:58;42.10;;;28.17;;
13353;SDS011;6746;50.892;4.064;2022-12-17T03:05:54;47.60;;;29.63;;
13353;SDS011;6746;50.892;4.064;2022-12-17T03:09:00;43.90;;;28.20;;
13353;SDS011;6746;50.892;4.064;2022-12-17T03:12:00;42.73;;;28.03;;
13353;SDS011;6746;50.892;4.064;2022-12-17T03:14:56;43.93;;;27.63;;
13353;SDS011;6746;50.892;4.064;2022-12-17T03:18:02;44.23;;;26.57;;
13353;SDS011;6746;50.892;4.064;2022-12-17T03:21:00;41.17;;;26.93;;
13353;SDS011;6746;50.892;4.064;2022-12-17T03:23:57;42.63;;;27.43;;
13353;SDS011;6746;50.892;4.064;2022-12-17T03:27:03;38.67;;;26.67;;
13353;SDS011;6746;50.892;4.064;2022-12-17T03:30:09;40.73;;;27.33;;
13353;SDS011;6746;50.892;4.064;2022-12-17T03:33:08;53.33;;;28.30;;
13353;SDS011;6746;50.892;4.064;2022-12-17T03:35:59;39.07;;;26.60;;
13353;SDS011;6746;50.892;4.064;2022-12-17T03:38:55;38.10;;;26.53;;
13353;SDS011;6746;50.892;4.064;2022-12-17T03:41:52;43.00;;;26.43;;
13353;SDS011;6746;50.892;4.064;2022-12-17T03:44:57;42.10;;;25.87;;
13353;SDS011;6746;50.892;4.064;2022-12-17T03:48:04;42.40;;;27.07;;
13353;SDS011;6746;50.892;4.064;2022-12-17T03:51:10;40.20;;;25.97;;
13353;SDS011;6746;50.892;4.064;2022-12-17T03:54:16;42.60;;;25.63;;
13353;SDS011;6746;50.892;4.064;2022-12-17T03:57:22;39.03;;;25.23;;
13353;SDS011;6746;50.892;4.064;2022-12-17T04:00:28;42.13;;;25.23;;
13353;SDS011;6746;50.892;4.064;2022-12-17T04:03:34;36.43;;;25.53;;
13353;SDS011;6746;50.892;4.064;2022-12-17T04:06:40;39.40;;;25.60;;
13353;SDS011;6746;50.892;4.064;2022-12-17T04:09:47;44.67;;;26.17;;
13353;SDS011;6746;50.892;4.064;2022-12-17T04:12:46;42.27;;;26.40;;
13353;SDS011;6746;50.892;4.064;2022-12-17T04:15:43;43.27;;;27.17;;
13353;SDS011;6746;50.892;4.064;2022-12-17T04:18:39;41.53;;;26.83;;
13353;SDS011;6746;50.892;4.064;2022-12-17T04:21:35;38.33;;;25.17;;
13353;SDS011;6746;50.892;4.064;2022-12-17T04:24:41;43.53;;;26.63;;
13353;SDS011;6746;50.892;4.064;2022-12-17T04:27:42;39.07;;;25.83;;
13353;SDS011;6746;50.892;4.064;2022-12-17T04:30:38;42.50;;;25.50;;
13353;SDS011;6746;50.892;4.064;2022-12-17T04:33:45;40.50;;;26.03;;
13353;SDS011;6746;50.892;4.064;2022-12-17T04:36:51;45.10;;;28.00;;
13353;SDS011;6746;50.892;4.064;2022-12-17T04:39:57;43.33;;;26.20;;
13353;SDS011;6746;50.892;4.064;2022-12-17T04:43:04;44.23;;;27.00;;
13353;SDS011;6746;50.892;4.064;2022-12-17T04:46:02;40.23;;;25.90;;
13353;SDS011;6746;50.892;4.064;2022-12-17T04:48:59;41.83;;;25.77;;
13353;SDS011;6746;50.892;4.064;2022-12-17T04:51:55;39.03;;;24.93;;
13353;SDS011;6746;50.892;4.064;2022-12-17T04:55:02;34.57;;;25.47;;
13353;SDS011;6746;50.892;4.064;2022-12-17T04:58:05;40.00;;;25.37;;
13353;SDS011;6746;50.892;4.064;2022-12-17T05:01:02;43.43;;;24.40;;
13353;SDS011;6746;50.892;4.064;2022-12-17T05:04:08;37.73;;;24.80;;
13353;SDS011;6746;50.892;4.064;2022-12-17T05:07:14;35.37;;;23.90;;
13353;SDS011;6746;50.892;4.064;2022-12-17T05:10:20;37.03;;;24.40;;
13353;SDS011;6746;50.892;4.064;2022-12-17T05:13:26;35.70;;;23.33;;
13353;SDS011;6746;50.892;4.064;2022-12-17T05:16:32;33.43;;;22.63;;
13353;SDS011;6746;50.892;4.064;2022-12-17T05:19:28;33.70;;;23.03;;
13353;SDS011;6746;50.892;4.064;2022-12-17T05:22:24;37.87;;;24.20;;
13353;SDS011;6746;50.892;4.064;2022-12-17T05:25:21;35.93;;;23.10;;
13353;SDS011;6746;50.892;4.064;2022-12-17T05:28:17;33.43;;;21.97;;
13353;SDS011;6746;50.892;4.064;2022-12-17T05:31:13;37.93;;;24.00;;
13353;SDS011;6746;50.892;4.064;2022-12-17T05:34:09;43.87;;;24.53;;
13353;SDS011;6746;50.892;4.064;2022-12-17T05:37:06;38.10;;;25.17;;
13353;SDS011;6746;50.892;4.064;2022-12-17T05:40:02;38.80;;;24.27;;
13353;SDS011;6746;50.892;4.064;2022-12-17T05:42:59;36.40;;;24.03;;
13353;SDS011;6746;50.892;4.064;2022-12-17T05:45:54;41.60;;;25.90;;
13353;SDS011;6746;50.892;4.064;2022-12-17T05:48:50;43.83;;;27.60;;
13353;SDS011;6746;50.892;4.064;2022-12-17T05:51:46;45.57;;;29.27;;
13353;SDS011;6746;50.892;4.064;2022-12-17T05:54:45;44.17;;;27.63;;
13353;SDS011;6746;50.892;4.064;2022-12-17T05:57:42;39.70;;;24.90;;
13353;SDS011;6746;50.892;4.064;2022-12-17T06:00:47;38.87;;;25.40;;
13353;SDS011;6746;50.892;4.064;2022-12-17T06:03:53;39.97;;;25.27;;
13353;SDS011;6746;50.892;4.064;2022-12-17T06:06:49;40.07;;;24.87;;
13353;SDS011;6746;50.892;4.064;2022-12-17T06:09:46;39.13;;;25.20;;
13353;SDS011;6746;50.892;4.064;2022-12-17T06:12:56;40.97;;;26.30;;
13353;SDS011;6746;50.892;4.064;2022-12-17T06:15:51;46.17;;;29.90;;
13353;SDS011;6746;50.892;4.064;2022-12-17T06:18:57;48.03;;;29.50;;
13353;SDS011;6746;50.892;4.064;2022-12-17T06:21:57;43.07;;;27.43;;
13353;SDS011;6746;50.892;4.064;2022-12-17T06:24:53;47.67;;;28.40;;
13353;SDS011;6746;50.892;4.064;2022-12-17T06:27:58;41.37;;;24.93;;
13353;SDS011;6746;50.892;4.064;2022-12-17T06:30:54;40.03;;;25.47;;
13353;SDS011;6746;50.892;4.064;2022-12-17T06:34:00;37.83;;;24.53;;
13353;SDS011;6746;50.892;4.064;2022-12-17T06:37:06;44.50;;;25.30;;
13353;SDS011;6746;50.892;4.064;2022-12-17T06:40:12;40.40;;;24.90;;
13353;SDS011;6746;50.892;4.064;2022-12-17T06:43:18;40.70;;;24.47;;
13353;SDS011;6746;50.892;4.064;2022-12-17T06:46:17;40.50;;;23.87;;
13353;SDS011;6746;50.892;4.064;2022-12-17T06:49:14;38.97;;;22.67;;
13353;SDS011;6746;50.892;4.064;2022-12-17T06:52:20;36.37;;;22.33;;
13353;SDS011;6746;50.892;4.064;2022-12-17T06:55:26;40.33;;;22.60;;
13353;SDS011;6746;50.892;4.064;2022-12-17T06:58:32;36.17;;;22.73;;
13353;SDS011;6746;50.892;4.064;2022-12-17T07:01:38;35.53;;;23.60;;
13353;SDS011;6746;50.892;4.064;2022-12-17T07:04:44;42.67;;;26.53;;
13353;SDS011;6746;50.892;4.064;2022-12-17T07:07:56;48.67;;;26.70;;
13353;SDS011;6746;50.892;4.064;2022-12-17T07:11:01;43.53;;;25.77;;
13353;SDS011;6746;50.892;4.064;2022-12-17T07:14:08;41.70;;;26.13;;
13353;SDS011;6746;50.892;4.064;2022-12-17T07:17:14;42.70;;;26.07;;
13353;SDS011;6746;50.892;4.064;2022-12-17T07:20:13;45.43;;;26.63;;
13353;SDS011;6746;50.892;4.064;2022-12-17T07:23:09;42.03;;;26.40;;
13353;SDS011;6746;50.892;4.064;2022-12-17T07:26:15;46.20;;;26.83;;
13353;SDS011;6746;50.892;4.064;2022-12-17T07:29:11;43.93;;;26.43;;
13353;SDS011;6746;50.892;4.064;2022-12-17T07:31:58;44.33;;;28.33;;
13353;SDS011;6746;50.892;4.064;2022-12-17T07:34:50;44.33;;;28.53;;
13353;SDS011;6746;50.892;4.064;2022-12-17T07:37:31;54.45;;;29.65;;
13353;SDS011;6746;50.892;4.064;2022-12-17T07:40:23;48.27;;;29.73;;
13353;SDS011;6746;50.892;4.064;2022-12-17T07:43:11;48.17;;;30.10;;
13353;SDS011;6746;50.892;4.064;2022-12-17T07:46:07;47.90;;;29.63;;
13353;SDS011;6746;50.892;4.064;2022-12-17T07:49:04;43.13;;;27.20;;
13353;SDS011;6746;50.892;4.064;2022-12-17T07:52:00;42.53;;;26.20;;
13353;SDS011;6746;50.892;4.064;2022-12-17T07:54:57;46.57;;;28.93;;
13353;SDS011;6746;50.892;4.064;2022-12-17T07:57:38;47.80;;;30.23;;
13353;SDS011;6746;50.892;4.064;2022-12-17T08:00:24;50.80;;;29.47;;
13353;SDS011;6746;50.892;4.064;2022-12-17T08:03:11;56.00;;;30.83;;
13353;SDS011;6746;50.892;4.064;2022-12-17T08:06:03;56.43;;;31.37;;
13353;SDS011;6746;50.892;4.064;2022-12-17T08:08:49;49.87;;;30.10;;
13353;SDS011;6746;50.892;4.064;2022-12-17T08:11:36;46.63;;;29.90;;
13353;SDS011;6746;50.892;4.064;2022-12-17T08:14:22;50.20;;;29.67;;
13353;SDS011;6746;50.892;4.064;2022-12-17T08:17:20;54.47;;;31.03;;
13353;SDS011;6746;50.892;4.064;2022-12-17T08:20:11;51.80;;;30.10;;
13353;SDS011;6746;50.892;4.064;2022-12-17T08:23:11;50.20;;;30.13;;
13353;SDS011;6746;50.892;4.064;2022-12-17T08:26:07;47.60;;;29.00;;
13353;SDS011;6746;50.892;4.064;2022-12-17T08:28:56;49.07;;;28.10;;
13353;SDS011;6746;50.892;4.064;2022-12-17T08:31:44;50.07;;;28.93;;
13353;SDS011;6746;50.892;4.064;2022-12-17T08:34:30;48.33;;;30.23;;
13353;SDS011;6746;50.892;4.064;2022-12-17T08:37:17;48.97;;;29.57;;
13353;SDS011;6746;50.892;4.064;2022-12-17T08:40:13;50.00;;;29.93;;
13353;SDS011;6746;50.892;4.064;2022-12-17T08:43:05;55.73;;;30.30;;
13353;SDS011;6746;50.892;4.064;2022-12-17T08:45:52;61.67;;;33.40;;
13353;SDS011;6746;50.892;4.064;2022-12-17T08:48:41;64.07;;;34.97;;
13353;SDS011;6746;50.892;4.064;2022-12-17T08:51:28;49.13;;;28.90;;
13353;SDS011;6746;50.892;4.064;2022-12-17T08:54:15;50.00;;;29.70;;
13353;SDS011;6746;50.892;4.064;2022-12-17T08:57:04;40.50;;;27.27;;
13353;SDS011;6746;50.892;4.064;2022-12-17T08:59:58;49.60;;;28.13;;
13353;SDS011;6746;50.892;4.064;2022-12-17T09:02:47;44.07;;;26.77;;
13353;SDS011;6746;50.892;4.064;2022-12-17T09:05:43;46.30;;;28.97;;
13353;SDS011;6746;50.892;4.064;2022-12-17T09:08:39;50.97;;;29.53;;
13353;SDS011;6746;50.892;4.064;2022-12-17T09:11:27;47.97;;;28.17;;
13353;SDS011;6746;50.892;4.064;2022-12-17T09:14:14;45.47;;;30.07;;
13353;SDS011;6746;50.892;4.064;2022-12-17T09:17:08;50.00;;;31.10;;
13353;SDS011;6746;50.892;4.064;2022-12-17T09:19:55;43.07;;;29.03;;
13353;SDS011;6746;50.892;4.064;2022-12-17T09:22:51;52.87;;;30.10;;
13353;SDS011;6746;50.892;4.064;2022-12-17T09:25:41;42.73;;;27.47;;
13353;SDS011;6746;50.892;4.064;2022-12-17T09:28:38;49.57;;;28.17;;
13353;SDS011;6746;50.892;4.064;2022-12-17T09:31:34;48.87;;;28.03;;
13353;SDS011;6746;50.892;4.064;2022-12-17T09:34:30;46.83;;;28.77;;
13353;SDS011;6746;50.892;4.064;2022-12-17T09:37:24;48.07;;;29.90;;
13353;SDS011;6746;50.892;4.064;2022-12-17T09:40:21;44.60;;;28.20;;
13353;SDS011;6746;50.892;4.064;2022-12-17T09:43:20;53.50;;;29.33;;
13353;SDS011;6746;50.892;4.064;2022-12-17T09:47:01;50.93;;;32.40;;
13353;SDS011;6746;50.892;4.064;2022-12-17T09:49:24;50.73;;;31.07;;
13353;SDS011;6746;50.892;4.064;2022-12-17T09:55:39;50.40;;;30.00;;
13353;SDS011;6746;50.892;4.064;2022-12-17T09:58:38;53.30;;;29.60;;
13353;SDS011;6746;50.892;4.064;2022-12-17T10:01:37;50.03;;;30.23;;
13353;SDS011;6746;50.892;4.064;2022-12-17T10:04:34;52.97;;;30.17;;
13353;SDS011;6746;50.892;4.064;2022-12-17T10:07:33;51.40;;;30.10;;
13353;SDS011;6746;50.892;4.064;2022-12-17T10:10:30;51.20;;;29.60;;
13353;SDS011;6746;50.892;4.064;2022-12-17T10:13:24;48.90;;;29.93;;
13353;SDS011;6746;50.892;4.064;2022-12-17T10:16:26;49.33;;;30.73;;
13353;SDS011;6746;50.892;4.064;2022-12-17T10:19:13;53.90;;;31.67;;
13353;SDS011;6746;50.892;4.064;2022-12-17T10:22:08;53.77;;;29.23;;
13353;SDS011;6746;50.892;4.064;2022-12-17T10:24:54;50.50;;;30.83;;
13353;SDS011;6746;50.892;4.064;2022-12-17T10:27:50;52.40;;;29.77;;
13353;SDS011;6746;50.892;4.064;2022-12-17T10:30:46;54.07;;;30.97;;
13353;SDS011;6746;50.892;4.064;2022-12-17T10:33:43;51.00;;;30.93;;
13353;SDS011;6746;50.892;4.064;2022-12-17T10:36:50;52.17;;;28.73;;
13353;SDS011;6746;50.892;4.064;2022-12-17T10:39:57;51.73;;;28.90;;
13353;SDS011;6746;50.892;4.064;2022-12-17T10:42:51;51.37;;;29.40;;
13353;SDS011;6746;50.892;4.064;2022-12-17T10:45:38;54.67;;;30.50;;
13353;SDS011;6746;50.892;4.064;2022-12-17T10:48:34;51.23;;;32.77;;
13353;SDS011;6746;50.892;4.064;2022-12-17T10:51:31;51.00;;;33.40;;
13353;SDS011;6746;50.892;4.064;2022-12-17T10:54:28;52.07;;;29.77;;
13353;SDS011;6746;50.892;4.064;2022-12-17T10:57:22;51.37;;;29.80;;
13353;SDS011;6746;50.892;4.064;2022-12-17T11:03:59;49.00;;;30.73;;
13353;SDS011;6746;50.892;4.064;2022-12-17T11:06:25;48.47;;;30.30;;
13353;SDS011;6746;50.892;4.064;2022-12-17T11:09:56;48.53;;;29.40;;
13353;SDS011;6746;50.892;4.064;2022-12-17T11:11:53;51.70;;;29.70;;
13353;SDS011;6746;50.892;4.064;2022-12-17T11:14:44;53.40;;;28.57;;
13353;SDS011;6746;50.892;4.064;2022-12-17T11:17:26;53.93;;;31.73;;
13353;SDS011;6746;50.892;4.064;2022-12-17T11:20:22;48.97;;;31.30;;
13353;SDS011;6746;50.892;4.064;2022-12-17T11:23:15;51.83;;;31.37;;
13353;SDS011;6746;50.892;4.064;2022-12-17T11:26:05;56.90;;;31.83;;
13353;SDS011;6746;50.892;4.064;2022-12-17T11:28:51;54.60;;;31.63;;
13353;SDS011;6746;50.892;4.064;2022-12-17T11:31:57;52.77;;;30.33;;
13353;SDS011;6746;50.892;4.064;2022-12-17T11:41:10;65.13;;;33.13;;
13353;SDS011;6746;50.892;4.064;2022-12-17T11:47:21;52.50;;;30.77;;
13353;SDS011;6746;50.892;4.064;2022-12-17T11:50:25;52.63;;;31.73;;
13353;SDS011;6746;50.892;4.064;2022-12-17T12:05:45;48.57;;;29.97;;
13353;SDS011;6746;50.892;4.064;2022-12-17T12:11:54;50.03;;;30.03;;
13353;SDS011;6746;50.892;4.064;2022-12-17T12:14:50;51.37;;;30.70;;
13353;SDS011;6746;50.892;4.064;2022-12-17T12:17:52;53.03;;;30.20;;
13353;SDS011;6746;50.892;4.064;2022-12-17T12:21:06;54.00;;;30.90;;
13353;SDS011;6746;50.892;4.064;2022-12-17T12:30:35;49.87;;;28.27;;
13353;SDS011;6746;50.892;4.064;2022-12-17T12:36:30;50.77;;;29.30;;
13353;SDS011;6746;50.892;4.064;2022-12-17T12:39:37;50.57;;;31.30;;
13353;SDS011;6746;50.892;4.064;2022-12-17T12:42:43;44.33;;;26.90;;
13353;SDS011;6746;50.892;4.064;2022-12-17T12:45:37;42.80;;;27.00;;
13353;SDS011;6746;50.892;4.064;2022-12-17T12:51:50;42.27;;;27.23;;
13353;SDS011;6746;50.892;4.064;2022-12-17T12:57:36;44.47;;;26.67;;
13353;SDS011;6746;50.892;4.064;2022-12-17T13:06:38;52.73;;;28.23;;
13353;SDS011;6746;50.892;4.064;2022-12-17T13:09:18;48.53;;;26.77;;
13353;SDS011;6746;50.892;4.064;2022-12-17T13:14:43;44.85;;;28.50;;
13353;SDS011;6746;50.892;4.064;2022-12-17T13:19:44;49.27;;;27.63;;
13353;SDS011;6746;50.892;4.064;2022-12-17T13:25:12;47.10;;;27.20;;
13353;SDS011;6746;50.892;4.064;2022-12-17T13:35:40;47.40;;;27.77;;
13353;SDS011;6746;50.892;4.064;2022-12-17T13:38:20;46.10;;;26.50;;
13353;SDS011;6746;50.892;4.064;2022-12-17T13:41:25;45.00;;;25.60;;
13353;SDS011;6746;50.892;4.064;2022-12-17T13:46:24;44.47;;;27.00;;
13353;SDS011;6746;50.892;4.064;2022-12-17T13:54:43;39.95;;;23.55;;
13353;SDS011;6746;50.892;4.064;2022-12-17T13:59:53;36.30;;;23.40;;
13353;SDS011;6746;50.892;4.064;2022-12-17T14:07:38;42.27;;;23.50;;
13353;SDS011;6746;50.892;4.064;2022-12-17T14:12:44;36.97;;;22.03;;
13353;SDS011;6746;50.892;4.064;2022-12-17T14:15:24;34.13;;;21.60;;
13353;SDS011;6746;50.892;4.064;2022-12-17T14:20:31;37.83;;;22.23;;
13353;SDS011;6746;50.892;4.064;2022-12-17T14:25:56;36.63;;;22.97;;
13353;SDS011;6746;50.892;4.064;2022-12-17T14:28:32;34.37;;;21.60;;
13353;SDS011;6746;50.892;4.064;2022-12-17T14:33:37;36.60;;;21.63;;
13353;SDS011;6746;50.892;4.064;2022-12-17T14:36:06;37.47;;;22.17;;
13353;SDS011;6746;50.892;4.064;2022-12-17T14:41:26;38.07;;;22.17;;
13353;SDS011;6746;50.892;4.064;2022-12-17T14:44:17;33.30;;;22.10;;
13353;SDS011;6746;50.892;4.064;2022-12-17T14:46:50;38.30;;;22.53;;
13353;SDS011;6746;50.892;4.064;2022-12-17T14:51:47;35.73;;;22.63;;
13353;SDS011;6746;50.892;4.064;2022-12-17T14:59:48;36.87;;;22.73;;
13353;SDS011;6746;50.892;4.064;2022-12-17T15:02:26;34.53;;;22.63;;
13353;SDS011;6746;50.892;4.064;2022-12-17T15:07:30;36.90;;;22.63;;
13353;SDS011;6746;50.892;4.064;2022-12-17T15:10:09;37.73;;;22.93;;
13353;SDS011;6746;50.892;4.064;2022-12-17T15:15:20;32.40;;;22.50;;
13353;SDS011;6746;50.892;4.064;2022-12-17T15:20:18;42.03;;;23.87;;
13353;SDS011;6746;50.892;4.064;2022-12-17T15:22:47;36.67;;;24.03;;
13353;SDS011;6746;50.892;4.064;2022-12-17T15:25:16;40.63;;;24.20;;
13353;SDS011;6746;50.892;4.064;2022-12-17T15:27:45;33.83;;;22.33;;
13353;SDS011;6746;50.892;4.064;2022-12-17T15:30:14;33.07;;;21.87;;
13353;SDS011;6746;50.892;4.064;2022-12-17T15:32:50;38.80;;;24.13;;
13353;SDS011;6746;50.892;4.064;2022-12-17T15:37:51;37.60;;;23.33;;
13353;SDS011;6746;50.892;4.064;2022-12-17T15:40:22;41.80;;;25.23;;
13353;SDS011;6746;50.892;4.064;2022-12-17T15:42:54;41.80;;;24.40;;
13353;SDS011;6746;50.892;4.064;2022-12-17T15:45:38;43.50;;;24.70;;
13353;SDS011;6746;50.892;4.064;2022-12-17T15:48:14;43.80;;;23.73;;
13353;SDS011;6746;50.892;4.064;2022-12-17T15:50:38;44.00;;;26.10;;
13353;SDS011;6746;50.892;4.064;2022-12-17T15:53:17;53.50;;;29.23;;
13353;SDS011;6746;50.892;4.064;2022-12-17T15:58:20;58.30;;;31.57;;
13353;SDS011;6746;50.892;4.064;2022-12-17T16:00:59;53.80;;;29.70;;
13353;SDS011;6746;50.892;4.064;2022-12-17T16:06:11;54.40;;;30.47;;
13353;SDS011;6746;50.892;4.064;2022-12-17T16:11:38;55.45;;;32.95;;
13353;SDS011;6746;50.892;4.064;2022-12-17T16:19:55;59.50;;;32.05;;
13353;SDS011;6746;50.892;4.064;2022-12-17T16:22:36;63.20;;;34.27;;
13353;SDS011;6746;50.892;4.064;2022-12-17T16:35:52;72.37;;;40.57;;
13353;SDS011;6746;50.892;4.064;2022-12-17T16:41:23;68.80;;;41.10;;
13353;SDS011;6746;50.892;4.064;2022-12-17T16:44:03;62.90;;;38.75;;
13353;SDS011;6746;50.892;4.064;2022-12-17T17:11:07;68.90;;;40.15;;
13353;SDS011;6746;50.892;4.064;2022-12-17T17:13:57;77.90;;;42.90;;
13353;SDS011;6746;50.892;4.064;2022-12-17T17:16:45;76.33;;;42.63;;
13353;SDS011;6746;50.892;4.064;2022-12-17T17:19:34;76.30;;;44.40;;
13353;SDS011;6746;50.892;4.064;2022-12-17T17:22:22;85.20;;;43.73;;
13353;SDS011;6746;50.892;4.064;2022-12-17T17:25:09;81.83;;;45.53;;
13353;SDS011;6746;50.892;4.064;2022-12-17T17:27:49;83.77;;;45.20;;
13353;SDS011;6746;50.892;4.064;2022-12-17T17:44:10;84.20;;;46.00;;
13353;SDS011;6746;50.892;4.064;2022-12-17T17:46:59;85.63;;;45.60;;
13353;SDS011;6746;50.892;4.064;2022-12-17T17:49:46;78.70;;;44.53;;
13353;SDS011;6746;50.892;4.064;2022-12-17T17:52:25;90.77;;;45.83;;
13353;SDS011;6746;50.892;4.064;2022-12-17T18:27:15;86.63;;;46.60;;
13353;SDS011;6746;50.892;4.064;2022-12-17T18:29:56;109.90;;;57.05;;
13353;SDS011;6746;50.892;4.064;2022-12-17T18:35:20;92.80;;;50.40;;
13353;SDS011;6746;50.892;4.064;2022-12-17T18:40:47;81.75;;;44.95;;
13353;SDS011;6746;50.892;4.064;2022-12-17T18:48:41;83.57;;;46.20;;
13353;SDS011;6746;50.892;4.064;2022-12-17T18:56:44;84.77;;;45.30;;
13353;SDS011;6746;50.892;4.064;2022-12-17T18:59:24;90.20;;;45.30;;
13353;SDS011;6746;50.892;4.064;2022-12-17T19:04:50;83.55;;;42.70;;
13353;SDS011;6746;50.892;4.064;2022-12-17T19:15:45;84.20;;;45.00;;
13353;SDS011;6746;50.892;4.064;2022-12-17T19:18:33;85.03;;;45.33;;
13353;SDS011;6746;50.892;4.064;2022-12-17T19:21:22;89.87;;;48.13;;
13353;SDS011;6746;50.892;4.064;2022-12-17T19:24:13;78.60;;;47.33;;
13353;SDS011;6746;50.892;4.064;2022-12-17T19:27:03;87.63;;;47.43;;
13353;SDS011;6746;50.892;4.064;2022-12-17T19:29:51;92.77;;;48.47;;
13353;SDS011;6746;50.892;4.064;2022-12-17T19:32:33;88.40;;;47.33;;
13353;SDS011;6746;50.892;4.064;2022-12-17T19:40:37;91.80;;;50.30;;
13353;SDS011;6746;50.892;4.064;2022-12-17T19:48:32;92.00;;;48.97;;
13353;SDS011;6746;50.892;4.064;2022-12-17T19:53:56;97.70;;;50.05;;
13353;SDS011;6746;50.892;4.064;2022-12-17T19:59:21;98.25;;;51.45;;
13353;SDS011;6746;50.892;4.064;2022-12-17T20:07:21;94.37;;;49.77;;
13353;SDS011;6746;50.892;4.064;2022-12-17T20:09:59;86.75;;;47.85;;
13353;SDS011;6746;50.892;4.064;2022-12-17T20:15:24;79.20;;;44.30;;
13353;SDS011;6746;50.892;4.064;2022-12-17T20:21:00;86.75;;;45.35;;
13353;SDS011;6746;50.892;4.064;2022-12-17T20:23:48;91.30;;;47.87;;
13353;SDS011;6746;50.892;4.064;2022-12-17T20:26:36;76.03;;;41.20;;
13353;SDS011;6746;50.892;4.064;2022-12-17T20:29:14;75.47;;;39.47;;
13353;SDS011;6746;50.892;4.064;2022-12-17T20:40:00;71.87;;;41.93;;
13353;SDS011;6746;50.892;4.064;2022-12-17T20:42:39;85.23;;;44.03;;
13353;SDS011;6746;50.892;4.064;2022-12-17T20:50:53;108.80;;;60.00;;
13353;SDS011;6746;50.892;4.064;2022-12-17T20:53:34;86.90;;;47.43;;
13353;SDS011;6746;50.892;4.064;2022-12-17T21:04:16;83.07;;;47.37;;
13353;SDS011;6746;50.892;4.064;2022-12-17T21:07:05;95.33;;;53.60;;
13353;SDS011;6746;50.892;4.064;2022-12-17T21:09:46;93.67;;;53.80;;
13353;SDS011;6746;50.892;4.064;2022-12-17T21:23:02;86.67;;;47.27;;
13353;SDS011;6746;50.892;4.064;2022-12-17T21:28:32;89.13;;;48.33;;
13353;SDS011;6746;50.892;4.064;2022-12-17T21:39:07;88.63;;;49.20;;
13353;SDS011;6746;50.892;4.064;2022-12-17T21:44:59;86.43;;;44.23;;
13353;SDS011;6746;50.892;4.064;2022-12-17T21:47:38;82.83;;;45.57;;
13353;SDS011;6746;50.892;4.064;2022-12-17T21:53:04;81.70;;;41.85;;
13353;SDS011;6746;50.892;4.064;2022-12-17T22:01:15;72.20;;;40.80;;
13353;SDS011;6746;50.892;4.064;2022-12-17T22:03:56;84.83;;;41.17;;
13353;SDS011;6746;50.892;4.064;2022-12-17T22:14:31;78.33;;;42.67;;
13353;SDS011;6746;50.892;4.064;2022-12-17T22:20:07;75.20;;;38.60;;
13353;SDS011;6746;50.892;4.064;2022-12-17T22:22:56;74.90;;;36.80;;
13353;SDS011;6746;50.892;4.064;2022-12-17T22:25:44;73.50;;;39.30;;
13353;SDS011;6746;50.892;4.064;2022-12-17T22:28:32;80.23;;;39.07;;
13353;SDS011;6746;50.892;4.064;2022-12-17T22:31:21;67.77;;;36.47;;
13353;SDS011;6746;50.892;4.064;2022-12-17T22:34:26;75.23;;;39.33;;
13353;SDS011;6746;50.892;4.064;2022-12-17T22:37:10;67.47;;;38.90;;
13353;SDS011;6746;50.892;4.064;2022-12-17T22:39:49;72.05;;;37.85;;
13353;SDS011;6746;50.892;4.064;2022-12-17T22:45:26;73.93;;;37.67;;
13353;SDS011;6746;50.892;4.064;2022-12-17T22:50:53;68.90;;;38.95;;